ADDS METAR Data INFO
IDs: Format: Raw Decoded Include TAF

Data at: 1915 UTC 19 Jul 2018

METAR for:KVNC (Venice Muni, FL, US)
Text:KVNC 191855Z AUTO 18012KT 8SM SCT025 SCT032 32/26 A2999 RMK AO2 LTG DSNT NE AND SW
Temperature: 32.0°C ( 90°F)
Dewpoint: 26.0°C ( 79°F) [RH = 71%]
Pressure (altimeter):29.99 inches Hg (1015.7 mb)
Winds:from the S (180 degrees) at 14 MPH (12 knots; 6.2 m/s)
Visibility: 8 sm ( 13 km)
Ceiling:at least 12,000 feet AGL
Clouds: scattered clouds at 2500 feet AGL, scattered clouds at 3200 feet AGL
QC Flag:automated observation with no human augmentation